Time;durP1;ratioP1;P1;durP2;ratioP2;P2;SDS_P1;SDS_P2;PMS_P1;PMS_P2;Temp;Humidity;BMP_temperature;BMP_pressure;BME280_temperature;BME280_humidity;BME280_pressure;Samples;Min_cycle;Max_cycle;Signal;HPM_P1;HPM_P2
2021/05/13 00:00:46;;;;;;;22.35;13.98;;;12.40;93.00;;;;;;5054213;28;20029;-71
2021/05/13 00:03:13;;;;;;;19.13;13.27;;;12.40;92.90;;;;;;5052811;28;20017;-72
2021/05/13 00:05:39;;;;;;;21.98;14.30;;;12.40;92.90;;;;;;5054071;28;20028;-72
2021/05/13 00:08:06;;;;;;;21.23;15.02;;;12.40;92.80;;;;;;5054061;28;20100;-72
2021/05/13 00:10:32;;;;;;;21.85;14.88;;;12.40;92.90;;;;;;5053967;28;20030;-72
2021/05/13 00:13:00;;;;;;;23.08;15.50;;;12.30;92.80;;;;;;5053819;28;20029;-72
2021/05/13 00:15:29;;;;;;;22.52;15.40;;;12.30;92.80;;;;;;5052388;28;20115;-72
2021/05/13 00:17:56;;;;;;;22.98;15.93;;;12.30;92.80;;;;;;5056186;28;20021;-72
2021/05/13 00:20:26;;;;;;;22.83;15.10;;;12.30;92.80;;;;;;5054053;28;20408;-72
2021/05/13 00:22:52;;;;;;;22.70;15.52;;;12.20;92.90;;;;;;5055773;28;20017;-72
2021/05/13 00:25:18;;;;;;;21.33;15.57;;;12.20;92.90;;;;;;5055779;28;20017;-72
2021/05/13 00:27:44;;;;;;;23.98;17.02;;;12.20;92.90;;;;;;5055934;28;20021;-72
2021/05/13 00:30:10;;;;;;;24.27;16.83;;;12.20;92.90;;;;;;5055865;28;20025;-72
2021/05/13 00:32:37;;;;;;;24.27;16.92;;;12.20;93.00;;;;;;5055055;28;20053;-72
2021/05/13 00:35:05;;;;;;;24.10;18.30;;;12.30;93.00;;;;;;5055457;28;20021;-72
2021/05/13 00:37:31;;;;;;;27.77;18.45;;;12.20;92.90;;;;;;5055397;28;20063;-72
2021/05/13 00:39:56;;;;;;;27.73;20.17;;;12.20;93.00;;;;;;5055361;28;20025;-72
2021/05/13 00:42:22;;;;;;;27.77;18.80;;;12.30;93.00;;;;;;5055648;28;20031;-72
2021/05/13 00:44:48;;;;;;;29.23;20.40;;;12.20;93.00;;;;;;5054180;28;20025;-72
2021/05/13 00:47:14;;;;;;;30.15;20.55;;;12.20;93.00;;;;;;5053309;28;20024;-72
2021/05/13 00:49:40;;;;;;;33.60;20.58;;;12.20;92.90;;;;;;5055145;28;20104;-71
2021/05/13 00:52:10;;;;;;;31.17;20.33;;;12.10;92.80;;;;;;5053774;28;20382;-72
2021/05/13 00:54:40;;;;;;;29.90;20.33;;;12.10;92.80;;;;;;5054044;28;20057;-72
2021/05/13 00:57:07;;;;;;;29.83;19.60;;;12.00;92.80;;;;;;5054975;28;20071;-71
2021/05/13 00:59:36;;;;;;;30.90;20.05;;;11.90;92.80;;;;;;5053439;28;20021;-72
2021/05/13 01:02:02;;;;;;;27.17;18.53;;;11.90;92.90;;;;;;5055026;28;20408;-72
2021/05/13 01:04:28;;;;;;;30.55;20.05;;;11.80;92.90;;;;;;5053612;28;20061;-72
2021/05/13 01:06:55;;;;;;;25.52;18.08;;;11.70;92.90;;;;;;5053709;28;20059;-72
2021/05/13 01:09:30;;;;;;;26.30;17.25;;;11.60;93.00;;;;;;5054647;28;20027;-72
2021/05/13 01:12:01;;;;;;;24.08;17.02;;;11.50;93.00;;;;;;5055117;28;20055;-72
2021/05/13 01:19:29;;;;;;;;;;;11.40;93.20;;;;;;5052928;28;20025;-72
2021/05/13 01:21:55;;;;;;;19.38;14.52;;;11.30;93.10;;;;;;5051420;28;20364;-72
2021/05/13 01:24:22;;;;;;;24.10;15.52;;;11.40;93.10;;;;;;5052133;28;20555;-71
2021/05/13 01:26:48;;;;;;;26.17;16.08;;;11.30;93.10;;;;;;5052477;28;20036;-72
2021/05/13 01:29:19;;;;;;;26.15;15.90;;;11.30;93.20;;;;;;5052275;28;20029;-72
2021/05/13 01:31:46;;;;;;;25.10;15.57;;;11.20;93.20;;;;;;5052512;28;20055;-72
2021/05/13 01:34:12;;;;;;;22.38;15.32;;;11.20;93.20;;;;;;5052375;28;20028;-72
2021/05/13 01:36:38;;;;;;;23.23;16.42;;;11.10;93.20;;;;;;5052454;28;20029;-72
2021/05/13 01:39:06;;;;;;;26.20;16.48;;;11.20;93.20;;;;;;5052163;28;20040;-72
2021/05/13 01:41:32;;;;;;;25.10;16.88;;;11.10;93.20;;;;;;5052379;28;20096;-72
2021/05/13 01:43:58;;;;;;;24.98;15.27;;;11.10;93.30;;;;;;5052195;28;20029;-72
2021/05/13 01:46:24;;;;;;;22.48;15.63;;;11.00;93.30;;;;;;5051961;28;20088;-72
2021/05/13 01:48:49;;;;;;;24.00;15.68;;;11.00;93.30;;;;;;5052133;28;20025;-71
2021/05/13 01:51:15;;;;;;;21.92;15.57;;;11.00;93.30;;;;;;5052105;28;20028;-72
2021/05/13 01:53:42;;;;;;;24.02;15.65;;;11.00;93.30;;;;;;5051943;28;20032;-71
2021/05/13 01:56:10;;;;;;;23.88;15.10;;;11.00;93.20;;;;;;5051922;28;20039;-72
2021/05/13 01:58:36;;;;;;;24.48;15.80;;;11.00;93.20;;;;;;5052077;28;20451;-72
2021/05/13 02:01:02;;;;;;;26.92;16.40;;;11.00;93.20;;;;;;5050675;28;20075;-71
2021/05/13 02:03:28;;;;;;;23.75;16.13;;;11.00;93.20;;;;;;5051720;28;20029;-72
2021/05/13 02:05:54;;;;;;;27.02;16.27;;;10.90;93.20;;;;;;5052001;28;20025;-72
2021/05/13 02:08:21;;;;;;;26.17;17.02;;;10.90;93.10;;;;;;5052080;28;20055;-72
2021/05/13 02:10:47;;;;;;;30.20;17.75;;;10.90;93.20;;;;;;5051846;28;20029;-71
2021/05/13 02:13:13;;;;;;;29.75;18.90;;;10.90;93.30;;;;;;5051703;28;20095;-72
2021/05/13 02:15:39;;;;;;;29.98;18.42;;;10.90;93.30;;;;;;5050603;28;20076;-72
2021/05/13 02:18:05;;;;;;;27.05;17.60;;;10.90;93.30;;;;;;5053975;28;20052;-72
2021/05/13 02:20:31;;;;;;;25.50;16.77;;;10.90;93.30;;;;;;5053865;28;20017;-72
2021/05/13 02:22:58;;;;;;;26.30;16.67;;;10.90;93.30;;;;;;5052522;28;20048;-71
2021/05/13 02:25:27;;;;;;;24.80;16.02;;;10.90;93.30;;;;;;5053160;28;20025;-72
2021/05/13 02:27:53;;;;;;;28.08;17.30;;;10.90;93.40;;;;;;5053623;28;20029;-72
2021/05/13 02:30:19;;;;;;;23.75;16.05;;;10.90;93.80;;;;;;5053001;28;20103;-72
2021/05/13 02:32:44;;;;;;;23.02;15.45;;;10.90;93.60;;;;;;5053074;28;20035;-72
2021/05/13 02:35:12;;;;;;;23.92;15.40;;;10.90;93.60;;;;;;5053474;28;20389;-71
2021/05/13 02:37:38;;;;;;;25.95;15.85;;;10.90;93.70;;;;;;5056604;28;20477;-71
2021/05/13 02:40:06;;;;;;;30.33;19.27;;;11.00;93.80;;;;;;5057569;28;20443;-72
2021/05/13 02:42:32;;;;;;;33.78;20.27;;;11.00;93.80;;;;;;5057648;28;20021;-71
2021/05/13 02:44:57;;;;;;;29.30;19.08;;;11.00;93.70;;;;;;5057428;28;20032;-71
2021/05/13 02:47:23;;;;;;;29.30;19.35;;;11.00;93.70;;;;;;5056927;28;20033;-71
2021/05/13 02:49:49;;;;;;;24.20;16.10;;;11.00;93.70;;;;;;5057632;28;20048;-71
2021/05/13 02:52:15;;;;;;;24.73;16.65;;;11.00;93.70;;;;;;5057182;28;20379;-71
2021/05/13 02:54:40;;;;;;;22.42;15.25;;;11.00;93.70;;;;;;5057207;28;20111;-72
2021/05/13 02:57:06;;;;;;;19.73;13.23;;;11.10;93.70;;;;;;5056481;28;20385;-71
2021/05/13 02:59:42;;;;;;;20.20;13.20;;;11.10;93.70;;;;;;5057125;28;20021;-72
2021/05/13 03:02:08;;;;;;;20.40;13.95;;;11.10;93.70;;;;;;5056022;28;20017;-72
2021/05/13 03:04:34;;;;;;;19.92;13.75;;;11.20;93.50;;;;;;5055521;28;20029;-73
2021/05/13 03:07:00;;;;;;;18.58;12.02;;;11.30;93.40;;;;;;5055417;28;20024;-72
2021/05/13 03:09:26;;;;;;;17.48;11.65;;;11.30;93.30;;;;;;5056345;28;20033;-73
2021/05/13 03:11:51;;;;;;;20.98;13.65;;;11.30;93.20;;;;;;5056479;28;20071;-72
2021/05/13 03:14:17;;;;;;;22.52;13.93;;;11.30;93.10;;;;;;5056025;28;20057;-72
2021/05/13 03:16:43;;;;;;;24.23;15.02;;;11.30;93.20;;;;;;5053906;28;20025;-72
2021/05/13 03:19:15;;;;;;;21.17;13.00;;;11.20;93.20;;;;;;5053050;28;20724;-71
2021/05/13 03:21:42;;;;;;;18.60;11.85;;;11.20;93.30;;;;;;5054471;28;20021;-72
2021/05/13 03:29:05;;;;;;;15.40;11.30;;;11.20;93.20;;;;;;5056453;28;20048;-71
2021/05/13 03:31:32;;;;;;;13.32;10.07;;;11.20;93.30;;;;;;5053660;28;20033;-72
2021/05/13 03:33:58;;;;;;;13.40;9.85;;;11.20;93.30;;;;;;5052972;28;20035;-72
2021/05/13 03:36:24;;;;;;;14.00;9.77;;;11.30;93.20;;;;;;5054316;28;20029;-72
2021/05/13 03:38:52;;;;;;;13.85;9.27;;;11.30;93.10;;;;;;5052804;28;20470;-72
2021/05/13 03:41:19;;;;;;;14.35;10.65;;;11.30;93.10;;;;;;5036947;28;20094;-72
2021/05/13 03:43:45;;;;;;;15.20;11.23;;;11.30;93.20;;;;;;5054161;28;20036;-72
2021/05/13 03:46:10;;;;;;;14.25;11.07;;;11.30;93.20;;;;;;5034230;28;20037;-72
2021/05/13 03:48:36;;;;;;;16.67;11.88;;;11.30;93.30;;;;;;5053973;28;20478;-72
2021/05/13 03:51:02;;;;;;;17.02;10.85;;;11.20;93.30;;;;;;5053092;28;20021;-72
2021/05/13 03:53:27;;;;;;;12.73;9.07;;;11.20;93.40;;;;;;5051943;28;20029;-72
2021/05/13 03:55:53;;;;;;;11.95;8.68;;;11.30;93.40;;;;;;5052470;28;20112;-72
2021/05/13 03:58:22;;;;;;;10.02;7.30;;;11.40;93.40;;;;;;5053425;28;20558;-75
2021/05/13 04:03:20;;;;;;;13.30;9.90;;;11.50;93.20;;;;;;5054285;28;20024;-73
2021/05/13 04:05:46;;;;;;;11.20;9.80;;;11.60;93.00;;;;;;5052618;28;20490;-72
2021/05/13 04:08:13;;;;;;;12.18;8.20;;;11.50;92.90;;;;;;5053715;28;20078;-72
2021/05/13 04:10:40;;;;;;;13.77;7.97;;;11.60;92.90;;;;;;5053525;28;20502;-72
2021/05/13 04:13:09;;;;;;;8.95;7.13;;;11.60;92.80;;;;;;5052647;28;20032;-72
2021/05/13 04:15:35;;;;;;;9.18;7.68;;;11.60;92.90;;;;;;5051936;28;20111;-72
2021/05/13 04:18:01;;;;;;;12.15;7.78;;;11.70;92.80;;;;;;5054985;28;20043;-72
2021/05/13 04:20:26;;;;;;;10.00;8.10;;;11.70;92.80;;;;;;5055163;28;20062;-73
2021/05/13 04:22:53;;;;;;;10.73;8.15;;;11.80;92.90;;;;;;5053691;28;20048;-72
2021/05/13 04:25:19;;;;;;;10.23;7.35;;;11.80;92.80;;;;;;5053511;28;20051;-75
2021/05/13 04:27:47;;;;;;;8.48;7.10;;;11.90;92.70;;;;;;5053359;28;20025;-72
2021/05/13 04:30:14;;;;;;;7.43;6.50;;;11.90;92.50;;;;;;5054126;28;20564;-73
2021/05/13 04:32:42;;;;;;;8.90;6.85;;;11.90;92.20;;;;;;5055003;28;20484;-73
2021/05/13 04:35:08;;;;;;;11.10;7.47;;;11.90;92.20;;;;;;5055422;28;20029;-76
2021/05/13 04:37:34;;;;;;;8.68;7.40;;;11.90;92.20;;;;;;5064648;28;20390;-73
2021/05/13 04:39:59;;;;;;;7.88;6.22;;;11.90;92.30;;;;;;5054409;28;20100;-75
2021/05/13 04:42:25;;;;;;;9.57;7.57;;;11.90;92.30;;;;;;5053435;28;20425;-77
2021/05/13 04:44:53;;;;;;;9.18;8.00;;;11.90;92.40;;;;;;5053901;28;20451;-75
2021/05/13 04:48:07;;;;;;;8.77;7.32;;;11.90;92.50;;;;;;5054930;28;20104;-76
2021/05/13 04:50:07;;;;;;;8.32;6.93;;;11.90;92.50;;;;;;5047518;28;20039;-76
2021/05/13 04:52:33;;;;;;;9.20;6.30;;;11.90;92.30;;;;;;5055036;28;20029;-77
2021/05/13 04:54:59;;;;;;;7.72;5.93;;;12.00;92.10;;;;;;5074739;28;20093;-76
2021/05/13 04:57:25;;;;;;;8.30;6.35;;;12.00;92.20;;;;;;5058788;28;20028;-76
2021/05/13 04:59:51;;;;;;;11.02;6.80;;;12.10;92.30;;;;;;5053267;28;20029;-76
2021/05/13 05:02:18;;;;;;;9.57;7.28;;;12.10;92.40;;;;;;5054489;28;20489;-76
2021/05/13 05:04:44;;;;;;;9.15;6.78;;;12.20;92.30;;;;;;5053139;28;20025;-77
2021/05/13 05:07:10;;;;;;;8.57;6.10;;;12.30;92.30;;;;;;5054413;28;20036;-76
2021/05/13 05:09:36;;;;;;;6.97;5.80;;;12.40;92.30;;;;;;5054197;28;20029;-77
2021/05/13 05:12:03;;;;;;;7.32;5.90;;;12.50;92.00;;;;;;5036727;28;20060;-76
2021/05/13 05:14:29;;;;;;;4.88;4.20;;;12.60;92.00;;;;;;5052373;28;20045;-74
2021/05/13 05:16:54;;;;;;;7.63;5.05;;;12.60;91.90;;;;;;5051806;28;20028;-75
2021/05/13 05:19:20;;;;;;;6.47;5.68;;;12.60;91.80;;;;;;5051528;28;20382;-74
2021/05/13 05:21:46;;;;;;;7.38;6.68;;;12.60;91.80;;;;;;5051795;28;20029;-78
2021/05/13 05:24:12;;;;;;;10.50;6.88;;;12.60;91.80;;;;;;5051973;28;20024;-74
2021/05/13 05:26:38;;;;;;;8.70;7.25;;;12.60;91.50;;;;;;5052681;28;20025;-74
2021/05/13 05:29:04;;;;;;;7.35;6.50;;;12.60;91.70;;;;;;5051643;28;20040;-74
2021/05/13 05:31:30;;;;;;;9.07;7.18;;;12.70;91.80;;;;;;5051550;28;20788;-74
2021/05/13 05:33:55;;;;;;;9.60;7.20;;;12.80;92.00;;;;;;5051394;28;20098;-74
2021/05/13 05:36:23;;;;;;;23.15;14.65;;;12.80;91.80;;;;;;5051477;28;20032;-74
2021/05/13 05:38:49;;;;;;;18.85;13.27;;;12.90;91.40;;;;;;5053204;28;20021;-75
2021/05/13 05:41:15;;;;;;;22.10;13.88;;;12.90;91.30;;;;;;5051671;28;20021;-75
2021/05/13 05:43:42;;;;;;;70.40;41.45;;;12.90;91.50;;;;;;5051111;28;20120;-73
2021/05/13 05:46:07;;;;;;;76.30;42.88;;;13.00;91.50;;;;;;5050968;28;20032;-73
2021/05/13 05:48:33;;;;;;;50.50;30.60;;;13.00;91.50;;;;;;5052398;28;20377;-75
2021/05/13 05:50:59;;;;;;;50.95;28.25;;;13.10;91.50;;;;;;5050905;28;20056;-74
2021/05/13 05:53:25;;;;;;;36.83;22.17;;;13.10;91.40;;;;;;5051119;28;20362;-75
2021/05/13 05:55:50;;;;;;;21.70;12.48;;;13.20;91.40;;;;;;5052899;28;20028;-75
2021/05/13 05:58:18;;;;;;;23.15;12.65;;;13.30;90.80;;;;;;5051536;28;20029;-75
2021/05/13 06:00:43;;;;;;;24.45;12.30;;;13.30;90.60;;;;;;5051033;28;20501;-75
2021/05/13 06:03:09;;;;;;;30.80;17.42;;;13.30;90.60;;;;;;5052597;28;20052;-75
2021/05/13 06:05:37;;;;;;;26.10;15.02;;;13.30;90.90;;;;;;5051077;28;20056;-75
2021/05/13 06:08:05;;;;;;;23.00;14.73;;;13.40;90.90;;;;;;5051099;28;20128;-74
2021/05/13 06:10:31;;;;;;;24.88;17.23;;;13.40;90.80;;;;;;5052278;28;20029;-75
2021/05/13 06:12:57;;;;;;;24.73;15.15;;;13.40;90.80;;;;;;5051924;28;20033;-75
2021/05/13 06:15:25;;;;;;;23.33;14.68;;;13.40;90.80;;;;;;5053195;28;20045;-76
2021/05/13 06:17:51;;;;;;;24.08;13.00;;;13.50;90.20;;;;;;5053501;28;20025;-74
2021/05/13 06:20:25;;;;;;;24.63;13.73;;;13.50;90.50;;;;;;5053168;28;20059;-75
2021/05/13 06:22:51;;;;;;;23.25;11.93;;;13.50;90.50;;;;;;5053407;28;20025;-74
2021/05/13 06:25:18;;;;;;;23.80;13.20;;;13.60;90.60;;;;;;5053196;28;20036;-74
2021/05/13 06:27:44;;;;;;;19.58;13.55;;;13.70;90.60;;;;;;5053149;28;20082;-75
2021/05/13 06:30:11;;;;;;;24.88;15.55;;;13.70;90.50;;;;;;5051955;28;20029;-75
2021/05/13 06:32:37;;;;;;;22.83;14.95;;;13.80;90.50;;;;;;5051928;28;20025;-74
2021/05/13 06:35:04;;;;;;;25.23;16.90;;;13.80;90.40;;;;;;5051808;28;20371;-75
2021/05/13 06:37:31;;;;;;;22.42;13.32;;;13.90;90.50;;;;;;5053074;28;20539;-76
2021/05/13 06:39:57;;;;;;;10.13;6.75;;;14.00;90.30;;;;;;5052038;28;20036;-75
2021/05/13 06:42:23;;;;;;;18.77;11.18;;;14.10;89.90;;;;;;5051619;28;20445;-74
2021/05/13 06:44:48;;;;;;;20.73;11.52;;;14.30;89.10;;;;;;5052660;28;20505;-75
2021/05/13 06:47:15;;;;;;;32.67;18.38;;;14.40;88.30;;;;;;5052399;28;20035;-75
2021/05/13 06:49:41;;;;;;;11.07;8.32;;;14.40;87.30;;;;;;5051780;28;20053;-75
2021/05/13 06:52:08;;;;;;;11.90;7.60;;;14.40;88.00;;;;;;5051621;28;20449;-74
2021/05/13 06:54:36;;;;;;;4.35;3.90;;;14.50;87.70;;;;;;5051764;28;20386;-75
2021/05/13 06:57:02;;;;;;;3.95;3.05;;;14.60;87.60;;;;;;5051979;28;20021;-74
2021/05/13 06:59:28;;;;;;;3.35;3.13;;;14.70;87.00;;;;;;5051607;28;20028;-74
2021/05/13 07:01:55;;;;;;;3.70;3.40;;;14.80;86.80;;;;;;5052943;28;20032;-73
2021/05/13 07:04:22;;;;;;;3.60;3.30;;;14.90;85.90;;;;;;5051717;28;20021;-75
2021/05/13 07:06:48;;;;;;;4.35;3.13;;;14.90;85.10;;;;;;5052903;28;20486;-76
2021/05/13 07:09:17;;;;;;;4.25;3.20;;;15.00;84.20;;;;;;5052778;28;20025;-74
2021/05/13 07:11:43;;;;;;;2.95;2.55;;;15.00;84.10;;;;;;5049870;28;20126;-74
2021/05/13 07:14:10;;;;;;;2.67;2.47;;;15.00;85.00;;;;;;5051414;28;20057;-76
2021/05/13 07:16:35;;;;;;;2.58;2.38;;;15.10;84.90;;;;;;5050084;28;20033;-76
2021/05/13 07:19:03;;;;;;;3.63;2.40;;;15.20;84.70;;;;;;5051124;28;20021;-72
2021/05/13 07:21:29;;;;;;;2.70;2.50;;;15.30;84.40;;;;;;5051060;28;20036;-75
2021/05/13 07:23:56;;;;;;;2.90;2.40;;;15.40;84.10;;;;;;5053680;28;20033;-75
2021/05/13 07:26:22;;;;;;;2.75;2.55;;;15.60;82.80;;;;;;5054703;28;20036;-76
2021/05/13 07:28:48;;;;;;;3.10;2.90;;;15.60;82.60;;;;;;5053552;28;20115;-78
2021/05/13 07:31:14;;;;;;;3.00;2.80;;;15.70;82.50;;;;;;5053618;28;20502;-77
2021/05/13 07:33:41;;;;;;;3.72;3.00;;;15.80;82.70;;;;;;5054668;28;20144;-81
2021/05/13 07:36:07;;;;;;;3.22;2.70;;;15.80;83.10;;;;;;5054948;28;20151;-75
2021/05/13 07:38:34;;;;;;;2.80;2.60;;;15.90;83.10;;;;;;5050372;28;20056;-79
2021/05/13 07:41:00;;;;;;;3.45;3.15;;;15.90;83.60;;;;;;5035820;28;20022;-74
2021/05/13 07:43:26;;;;;;;3.38;2.90;;;15.90;83.60;;;;;;5053575;28;20021;-74
2021/05/13 07:45:52;;;;;;;3.20;3.00;;;15.90;83.00;;;;;;5053561;28;20044;-75
2021/05/13 07:48:18;;;;;;;4.60;2.90;;;15.90;83.80;;;;;;5037148;28;20029;-78
2021/05/13 07:50:45;;;;;;;3.60;3.30;;;15.90;84.20;;;;;;5055334;28;20021;-77
2021/05/13 07:53:11;;;;;;;3.28;2.97;;;16.00;84.10;;;;;;5055714;28;20090;-78
2021/05/13 07:55:37;;;;;;;4.03;3.25;;;16.20;83.20;;;;;;5036949;28;20498;-82
2021/05/13 07:58:04;;;;;;;3.75;3.35;;;16.30;82.50;;;;;;5055039;28;20478;-75
2021/05/13 08:00:30;;;;;;;3.90;3.60;;;16.30;82.00;;;;;;5054135;28;20037;-74
2021/05/13 08:02:56;;;;;;;4.75;4.35;;;16.40;82.20;;;;;;5055063;28;20021;-80
2021/05/13 08:05:22;;;;;;;5.47;3.78;;;16.40;82.30;;;;;;5053238;28;20112;-77
2021/05/13 08:07:48;;;;;;;4.10;3.78;;;16.40;82.80;;;;;;5055328;28;20029;-76
2021/05/13 08:10:15;;;;;;;3.85;3.55;;;16.50;81.90;;;;;;5054912;28;20108;-77
2021/05/13 08:12:42;;;;;;;5.00;3.60;;;16.40;81.80;;;;;;5055018;28;20105;-75
2021/05/13 08:15:11;;;;;;;3.78;3.47;;;16.40;81.20;;;;;;5055046;28;20488;-75
2021/05/13 08:17:40;;;;;;;5.47;3.72;;;16.40;81.80;;;;;;5055584;28;20024;-78
2021/05/13 08:20:08;;;;;;;4.07;3.72;;;16.40;82.00;;;;;;5054601;28;20378;-75
2021/05/13 08:22:34;;;;;;;6.85;5.22;;;16.30;82.50;;;;;;5054126;28;20025;-76
2021/05/13 08:25:03;;;;;;;4.38;3.97;;;16.30;83.10;;;;;;5055972;28;20021;-76
2021/05/13 08:27:30;;;;;;;4.95;3.80;;;16.30;83.00;;;;;;5054397;28;20128;-75
2021/05/13 08:29:57;;;;;;;4.22;3.58;;;16.40;82.50;;;;;;5055254;28;20074;-75
2021/05/13 08:32:23;;;;;;;5.80;3.90;;;16.40;82.90;;;;;;5054449;28;20032;-74
2021/05/13 08:34:49;;;;;;;4.20;3.60;;;16.40;83.10;;;;;;5054540;28;20119;-76
2021/05/13 08:37:16;;;;;;;4.40;3.30;;;16.40;83.30;;;;;;5054898;28;20059;-74
2021/05/13 08:39:41;;;;;;;3.47;3.28;;;16.50;82.20;;;;;;5055047;28;20474;-74
2021/05/13 08:42:07;;;;;;;4.45;3.38;;;16.50;80.80;;;;;;5054789;28;20025;-77
2021/05/13 08:44:33;;;;;;;3.80;3.50;;;16.50;81.10;;;;;;5053843;28;20056;-76
2021/05/13 08:46:59;;;;;;;3.55;3.13;;;16.40;80.30;;;;;;5053689;28;20079;-76
2021/05/13 08:49:27;;;;;;;7.10;3.85;;;16.30;80.60;;;;;;5055094;28;20033;-73
2021/05/13 08:51:53;;;;;;;3.15;2.60;;;16.30;81.80;;;;;;5052610;28;20025;-73
2021/05/13 08:54:23;;;;;;;3.42;3.10;;;16.20;81.50;;;;;;5054753;28;20049;-72
2021/05/13 08:56:50;;;;;;;3.50;3.20;;;16.20;81.30;;;;;;5053646;28;20032;-70
2021/05/13 08:59:16;;;;;;;3.25;2.95;;;16.10;82.10;;;;;;5054773;28;20021;-79
2021/05/13 09:01:58;;;;;;;3.10;2.72;;;16.00;82.70;;;;;;5053197;28;20079;-73
2021/05/13 09:04:24;;;;;;;3.38;3.10;;;16.00;82.10;;;;;;5053564;28;20033;-76
2021/05/13 09:06:51;;;;;;;3.38;3.10;;;16.00;82.20;;;;;;5054284;28;20067;-74
2021/05/13 09:09:19;;;;;;;3.20;3.00;;;16.00;82.80;;;;;;5054536;28;20394;-75
2021/05/13 09:11:51;;;;;;;4.15;3.10;;;16.00;83.50;;;;;;5053313;28;20029;-73
2021/05/13 09:14:22;;;;;;;3.15;2.80;;;16.00;83.40;;;;;;5052812;28;20053;-78
2021/05/13 09:16:49;;;;;;;4.20;3.30;;;16.00;83.60;;;;;;5050975;28;20025;-73
2021/05/13 09:19:34;;;;;;;4.40;3.30;;;15.90;84.00;;;;;;5053345;28;20522;-72
2021/05/13 09:22:02;;;;;;;3.65;3.30;;;15.90;84.90;;;;;;5052018;28;20044;-77
2021/05/13 09:25:02;;;;;;;3.13;2.92;;;15.80;85.40;;;;;;5053775;28;20060;-74
2021/05/13 09:27:42;;;;;;;3.65;3.00;;;15.90;84.90;;;;;;5053833;28;20028;-80
2021/05/13 09:30:24;;;;;;;3.13;2.83;;;15.90;84.10;;;;;;5051916;28;20032;-82
2021/05/13 09:32:58;;;;;;;5.47;3.33;;;15.90;85.00;;;;;;5053145;28;20021;-73
2021/05/13 09:35:30;;;;;;;3.10;2.83;;;15.80;85.10;;;;;;5051575;28;20025;-73
2021/05/13 09:38:00;;;;;;;3.22;2.97;;;15.80;85.40;;;;;;5052615;28;20013;-74
2021/05/13 09:40:35;;;;;;;5.43;3.22;;;15.90;86.00;;;;;;5051411;28;20875;-80
2021/05/13 09:43:28;;;;;;;2.90;2.70;;;15.90;86.10;;;;;;5053254;28;20048;-74
2021/05/13 09:45:56;;;;;;;3.05;2.80;;;15.90;84.70;;;;;;5051637;28;20513;-75
2021/05/13 09:48:42;;;;;;;3.00;2.80;;;15.90;84.50;;;;;;5051738;28;20040;-77
2021/05/13 09:51:37;;;;;;;2.70;2.50;;;15.80;85.30;;;;;;5050401;28;20051;-77
2021/05/13 09:54:16;;;;;;;3.95;3.05;;;15.80;85.10;;;;;;5048375;28;20033;-85
2021/05/13 09:56:46;;;;;;;3.15;2.95;;;15.70;85.30;;;;;;5050037;28;20505;-76
2021/05/13 09:59:34;;;;;;;2.85;2.65;;;15.70;86.10;;;;;;5050283;28;20033;-75
2021/05/13 10:02:05;;;;;;;3.78;2.83;;;15.80;85.50;;;;;;5049765;28;20017;-74
2021/05/13 10:04:32;;;;;;;2.75;2.50;;;15.80;85.30;;;;;;5051397;28;20379;-73
2021/05/13 10:06:58;;;;;;;2.70;2.50;;;15.80;85.10;;;;;;5051046;28;20475;-76
2021/05/13 10:09:24;;;;;;;2.90;2.70;;;15.80;84.60;;;;;;5051181;28;20124;-73
2021/05/13 10:11:51;;;;;;;2.63;2.42;;;15.80;85.50;;;;;;5051246;28;20625;-79
2021/05/13 10:14:21;;;;;;;2.65;2.45;;;15.90;84.60;;;;;;5050998;28;20499;-75
2021/05/13 10:16:53;;;;;;;3.83;2.67;;;15.90;84.40;;;;;;5052610;28;20104;-78
2021/05/13 10:19:32;;;;;;;2.65;2.45;;;16.00;83.20;;;;;;5052801;28;20479;-73
2021/05/13 10:22:01;;;;;;;6.40;2.90;;;16.00;83.40;;;;;;5051536;28;20382;-79
2021/05/13 10:24:27;;;;;;;2.63;2.42;;;15.90;83.50;;;;;;5051756;28;20083;-73
2021/05/13 10:26:52;;;;;;;4.32;2.75;;;15.90;82.80;;;;;;5051285;28;20029;-71
2021/05/13 10:29:30;;;;;;;4.07;2.40;;;16.00;82.30;;;;;;5052495;28;20067;-76
2021/05/13 10:32:18;;;;;;;2.33;2.00;;;16.10;81.60;;;;;;5052756;28;20033;-86
2021/05/13 10:34:45;;;;;;;15.30;2.83;;;16.00;81.00;;;;;;5053242;28;20037;-75
2021/05/13 10:37:33;;;;;;;2.20;2.10;;;16.10;80.00;;;;;;5051461;28;20425;-80
2021/05/13 10:40:10;;;;;;;2.28;2.08;;;16.10;80.40;;;;;;5052693;28;20017;-78
2021/05/13 10:42:37;;;;;;;2.15;2.00;;;16.10;80.90;;;;;;5052003;28;20025;-88
2021/05/13 10:45:30;;;;;;;2.47;2.25;;;16.30;80.80;;;;;;5052762;28;20037;-80
2021/05/13 10:48:18;;;;;;;2.55;2.00;;;16.50;79.40;;;;;;5043982;28;20047;-84
2021/05/13 10:50:49;;;;;;;2.78;1.80;;;16.80;77.70;;;;;;5052031;28;20079;-87
2021/05/13 10:53:34;;;;;;;2.10;2.00;;;17.00;77.70;;;;;;5054058;28;20405;-82
2021/05/13 10:56:28;;;;;;;1.95;1.85;;;17.10;77.70;;;;;;5052636;28;20025;-79
2021/05/13 10:59:03;;;;;;;2.33;2.10;;;17.20;77.80;;;;;;5056266;28;20075;-77
2021/05/13 11:04:21;;;;;;;3.42;2.33;;;17.50;77.10;;;;;;5071373;28;20409;-77
2021/05/13 11:07:14;;;;;;;2.13;2.00;;;17.60;77.30;;;;;;5071245;28;20020;-74
2021/05/13 11:12:09;;;;;;;2.47;2.00;;;17.80;75.70;;;;;;5071363;28;20481;-84
2021/05/13 11:14:53;;;;;;;3.45;2.08;;;17.80;75.50;;;;;;5070877;28;20025;-81
2021/05/13 11:17:56;;;;;;;2.10;2.00;;;17.80;74.20;;;;;;5070449;28;20055;-73
2021/05/13 11:20:29;;;;;;;2.60;1.98;;;17.80;75.50;;;;;;5069525;28;20020;-73
2021/05/13 11:23:01;;;;;;;2.90;2.20;;;17.90;75.00;;;;;;5068795;28;20508;-76
2021/05/13 11:25:44;;;;;;;2.80;2.10;;;17.90;74.60;;;;;;5068707;28;20052;-80
2021/05/13 11:28:31;;;;;;;2.60;2.33;;;18.00;73.70;;;;;;5068188;28;20467;-74
2021/05/13 11:31:12;;;;;;;2.60;1.80;;;18.00;73.10;;;;;;5069214;28;20021;-73
2021/05/13 11:33:47;;;;;;;6.63;2.30;;;18.00;73.20;;;;;;5068610;28;20029;-76
2021/05/13 11:36:18;;;;;;;3.45;2.20;;;18.10;74.20;;;;;;5069396;28;20029;-84
2021/05/13 11:38:49;;;;;;;2.70;1.83;;;18.10;73.90;;;;;;5068994;28;20108;-73
2021/05/13 11:41:17;;;;;;;3.58;2.45;;;18.20;73.90;;;;;;5069352;28;20017;-74
2021/05/13 11:43:42;;;;;;;2.47;2.20;;;18.20;74.10;;;;;;5069584;28;20400;-74
2021/05/13 11:46:10;;;;;;;3.92;2.10;;;18.30;74.60;;;;;;5069436;28;20029;-76
2021/05/13 11:48:37;;;;;;;3.67;2.25;;;18.30;74.60;;;;;;5068695;28;20470;-77
2021/05/13 11:51:09;;;;;;;2.15;2.00;;;18.30;74.00;;;;;;5068606;28;20020;-72
2021/05/13 11:53:36;;;;;;;4.40;2.00;;;18.30;73.50;;;;;;5068451;28;20104;-73
2021/05/13 11:56:04;;;;;;;4.00;2.17;;;18.20;73.10;;;;;;5067912;28;20439;-73
2021/05/13 11:58:40;;;;;;;2.20;2.00;;;18.20;72.70;;;;;;5069234;28;20021;-80
2021/05/13 12:01:22;;;;;;;2.60;2.05;;;18.00;73.20;;;;;;5068354;28;20020;-77
2021/05/13 12:04:09;;;;;;;2.75;2.28;;;17.90;73.30;;;;;;5067878;28;20541;-80
2021/05/13 12:06:57;;;;;;;2.85;2.05;;;17.90;73.10;;;;;;5068814;28;20039;-82
2021/05/13 12:09:23;;;;;;;4.57;2.45;;;17.80;73.50;;;;;;5068722;28;20032;-78
2021/05/13 12:11:50;;;;;;;3.78;2.03;;;17.80;73.10;;;;;;5069261;28;20021;-80
2021/05/13 12:14:26;;;;;;;2.78;2.08;;;17.70;73.10;;;;;;5061773;28;20024;-79
2021/05/13 12:16:56;;;;;;;2.40;2.20;;;17.70;73.70;;;;;;5056195;28;20391;-75
2021/05/13 12:19:22;;;;;;;2.35;2.03;;;17.60;73.90;;;;;;5054924;28;20132;-74
2021/05/13 12:21:57;;;;;;;2.13;2.00;;;17.50;74.20;;;;;;5054967;28;20048;-80
2021/05/13 12:24:31;;;;;;;2.25;2.05;;;17.40;74.70;;;;;;5056073;28;20021;-75
2021/05/13 12:26:58;;;;;;;1.98;1.88;;;17.40;74.70;;;;;;5056070;28;20075;-82
2021/05/13 12:29:25;;;;;;;2.00;1.80;;;17.30;75.00;;;;;;5055671;28;20025;-76
2021/05/13 12:31:51;;;;;;;3.08;2.10;;;17.20;75.50;;;;;;5054928;28;20436;-73
2021/05/13 12:34:39;;;;;;;2.20;2.10;;;17.20;75.90;;;;;;5056640;28;20363;-77
2021/05/13 12:37:06;;;;;;;2.00;1.90;;;17.10;76.30;;;;;;5056565;28;20041;-75
2021/05/13 12:39:37;;;;;;;4.28;2.33;;;17.10;76.80;;;;;;5056374;28;20071;-77
2021/05/13 12:42:21;;;;;;;2.58;2.38;;;17.10;77.00;;;;;;5054351;28;20032;-77
2021/05/13 12:44:47;;;;;;;2.67;2.47;;;17.00;77.40;;;;;;5054334;28;20017;-75
2021/05/13 12:47:12;;;;;;;2.33;2.22;;;17.00;77.60;;;;;;5055596;28;20024;-75
2021/05/13 12:49:38;;;;;;;3.00;2.55;;;17.00;77.60;;;;;;5054137;28;20087;-75
2021/05/13 12:52:05;;;;;;;2.10;2.00;;;17.00;77.70;;;;;;5054925;28;20429;-76
2021/05/13 12:54:33;;;;;;;3.00;2.80;;;17.00;78.20;;;;;;5054017;28;20513;-78
2021/05/13 12:57:15;;;;;;;3.63;3.00;;;17.00;78.50;;;;;;5054327;28;20040;-73
2021/05/13 13:00:02;;;;;;;2.25;2.13;;;17.00;78.30;;;;;;5055398;28;20093;-74
2021/05/13 13:02:28;;;;;;;2.92;2.60;;;17.00;78.70;;;;;;5054604;28;20079;-73
2021/05/13 13:04:57;;;;;;;4.50;3.05;;;17.00;78.90;;;;;;5055436;28;20094;-72